Time;durP1;ratioP1;P1;durP2;ratioP2;P2;SDS_P1;SDS_P2;PMS_P1;PMS_P2;Temp;Humidity;BMP_temperature;BMP_pressure;BME280_temperature;BME280_humidity;BME280_pressure;Samples;Min_cycle;Max_cycle;Signal;HPM_P1;HPM_P2
2021/11/18 00:02:01;;;;;;;9.53;5.43;;;5.00;99.90;;;5.90;100.00;99230.03;5063107;28;20472;-80
2021/11/18 00:04:31;;;;;;;9.50;5.50;;;4.90;99.90;;;5.91;100.00;99231.66;5067819;28;20463;-79
2021/11/18 00:07:00;;;;;;;5.93;4.30;;;4.90;99.90;;;5.88;100.00;99226.72;5076132;28;20478;-80
2021/11/18 00:09:29;;;;;;;8.50;5.17;;;5.00;99.90;;;5.87;100.00;99217.28;5064646;28;20492;-79
2021/11/18 00:11:58;;;;;;;9.87;5.47;;;5.00;99.90;;;5.91;100.00;99213.50;5062161;28;20801;-79
2021/11/18 00:14:26;;;;;;;9.63;5.00;;;5.00;99.90;;;5.81;100.00;99226.41;5064261;28;21036;-80
2021/11/18 00:16:55;;;;;;;9.30;5.20;;;4.90;99.90;;;5.81;100.00;99226.41;5060991;28;20460;-79
2021/11/18 00:19:24;;;;;;;6.97;4.90;;;4.90;99.90;;;5.74;100.00;99233.03;5066895;28;20956;-80
2021/11/18 00:21:54;;;;;;;9.53;5.20;;;4.70;99.90;;;5.74;100.00;99233.03;5070007;28;20505;-79
2021/11/18 00:24:23;;;;;;;7.30;4.93;;;4.80;99.90;;;5.72;100.00;99227.16;5072693;28;20462;-79
2021/11/18 00:26:54;;;;;;;13.93;6.43;;;4.80;99.90;;;5.73;100.00;99220.19;5063468;28;20463;-79
2021/11/18 00:29:24;;;;;;;9.47;5.47;;;4.80;99.90;;;5.68;100.00;99220.59;5061425;28;20492;-79
2021/11/18 00:31:52;;;;;;;7.50;5.10;;;4.80;99.90;;;5.63;100.00;99221.91;5066000;28;21218;-80
2021/11/18 00:34:21;;;;;;;10.90;6.23;;;4.60;99.90;;;5.55;100.00;99220.75;5067073;28;21371;-79
2021/11/18 00:36:49;;;;;;;7.77;5.33;;;4.50;99.90;;;5.59;100.00;99223.91;5065557;28;20552;-80
2021/11/18 00:39:20;;;;;;;9.17;5.77;;;4.60;99.90;;;5.56;100.00;99231.97;5061337;28;20460;-79
2021/11/18 00:41:48;;;;;;;8.37;5.50;;;4.50;99.90;;;5.53;100.00;99229.63;5064009;28;20464;-79
2021/11/18 00:44:18;;;;;;;8.27;5.03;;;4.60;99.90;;;5.54;100.00;99242.47;5062371;28;20499;-79
2021/11/18 00:46:46;;;;;;;10.23;6.00;;;4.70;99.90;;;5.57;100.00;99244.00;5061718;28;20528;-79
2021/11/18 00:49:15;;;;;;;9.17;5.43;;;4.70;99.90;;;5.61;100.00;99244.56;5067736;28;20529;-79
2021/11/18 00:51:44;;;;;;;12.10;6.10;;;4.70;99.90;;;5.62;100.00;99247.03;5065510;28;20521;-79
2021/11/18 00:54:13;;;;;;;7.53;5.33;;;4.70;99.90;;;5.55;100.00;99251.88;5070127;28;20482;-79
2021/11/18 00:56:42;;;;;;;8.57;5.20;;;4.60;99.90;;;5.59;100.00;99236.91;5061112;28;20500;-79
2021/11/18 00:59:11;;;;;;;10.63;5.03;;;4.70;99.90;;;5.58;100.00;99246.47;5066829;28;20463;-79
2021/11/18 01:01:43;;;;;;;7.97;5.53;;;4.70;99.90;;;5.53;100.00;99237.41;5064287;28;20513;-79
2021/11/18 01:04:14;;;;;;;9.00;5.37;;;4.70;99.90;;;5.47;100.00;99241.34;5063818;28;20474;-80
2021/11/18 01:06:43;;;;;;;9.47;5.40;;;4.70;99.90;;;5.42;100.00;99235.69;5065760;28;20616;-80
2021/11/18 01:09:12;;;;;;;10.93;5.53;;;4.50;99.90;;;5.43;100.00;99242.53;5067697;28;20458;-79
2021/11/18 01:11:43;;;;;;;6.20;4.60;;;4.50;99.90;;;5.45;100.00;99244.97;5066253;28;20468;-79
2021/11/18 01:14:16;;;;;;;9.57;6.00;;;4.50;99.90;;;5.46;100.00;99257.84;5064624;28;20511;-79
2021/11/18 01:16:47;;;;;;;9.10;5.30;;;4.70;99.90;;;5.49;100.00;99252.41;5060235;28;20470;-79
2021/11/18 01:19:16;;;;;;;10.93;5.33;;;4.60;99.90;;;5.43;100.00;99252.91;5067436;28;20451;-79
2021/11/18 01:21:48;;;;;;;11.07;4.83;;;4.60;99.90;;;5.43;100.00;99242.53;5061733;28;20524;-80
2021/11/18 01:24:18;;;;;;;7.50;4.80;;;4.50;99.90;;;5.42;100.00;99243.47;5060008;28;20495;-79
2021/11/18 01:26:48;;;;;;;8.00;5.10;;;4.50;99.90;;;5.36;100.00;99245.75;5063980;28;20467;-79
2021/11/18 01:29:17;;;;;;;9.50;5.37;;;4.40;99.90;;;5.37;100.00;99253.41;5065099;28;20458;-79
2021/11/18 01:31:46;;;;;;;9.63;5.37;;;4.40;99.90;;;5.37;100.00;99263.78;5061035;28;20488;-79
2021/11/18 01:34:14;;;;;;;10.37;5.47;;;4.40;99.90;;;5.41;100.00;99257.41;5056669;28;20589;-79
2021/11/18 01:36:43;;;;;;;9.33;5.73;;;4.50;99.90;;;5.41;100.00;99257.41;5066897;28;20455;-79
2021/11/18 01:39:12;;;;;;;15.50;5.00;;;4.50;99.90;;;5.39;100.00;99256.69;5069720;28;20463;-79
2021/11/18 01:41:42;;;;;;;9.13;5.50;;;4.50;99.90;;;5.42;100.00;99259.03;5061520;28;20551;-79
2021/11/18 01:44:18;;;;;;;8.33;5.50;;;4.50;99.90;;;5.41;100.00;99264.34;5066011;28;20801;-79
2021/11/18 01:46:47;;;;;;;11.03;5.70;;;4.50;99.90;;;5.37;100.00;99263.78;5063833;28;20490;-79
2021/11/18 01:49:16;;;;;;;8.13;4.87;;;4.60;99.90;;;5.34;100.00;99258.03;5061897;28;20499;-79
2021/11/18 01:51:50;;;;;;;8.80;5.43;;;4.40;99.90;;;5.35;100.00;99270.00;5062287;28;20540;-80
2021/11/18 01:54:23;;;;;;;13.40;5.13;;;4.50;99.90;;;5.40;100.00;99273.91;5066372;28;20464;-79
2021/11/18 01:56:52;;;;;;;9.93;5.20;;;4.70;99.90;;;5.40;100.00;99281.69;5062900;28;20872;-79
2021/11/18 01:59:26;;;;;;;7.33;5.37;;;4.60;99.90;;;5.41;100.00;99285.94;5065746;28;20446;-79
2021/11/18 02:01:56;;;;;;;12.53;5.70;;;4.50;99.90;;;5.42;100.00;99290.16;5066501;28;20529;-79
2021/11/18 02:04:29;;;;;;;8.97;4.93;;;4.60;99.90;;;5.41;100.00;99296.31;5068683;28;20464;-79
2021/11/18 02:07:00;;;;;;;10.57;5.90;;;4.50;99.90;;;5.35;100.00;99296.78;5061200;28;20525;-79
2021/11/18 02:09:36;;;;;;;8.73;5.27;;;4.40;99.90;;;5.33;100.00;99297.84;5058806;28;20456;-79
2021/11/18 02:12:09;;;;;;;16.50;6.10;;;4.40;99.90;;;5.34;100.00;99305.53;5060775;28;21014;-79
2021/11/18 02:14:39;;;;;;;9.90;5.43;;;4.40;99.90;;;5.37;100.00;99302.69;5070712;28;20866;-80
2021/11/18 02:17:11;;;;;;;13.97;5.60;;;4.50;99.90;;;5.31;100.00;99294.56;5058764;28;20748;-79
2021/11/18 02:19:44;;;;;;;9.30;6.00;;;4.30;99.90;;;5.33;100.00;99300.44;5068409;28;20971;-79
2021/11/18 02:22:17;;;;;;;13.67;6.90;;;4.40;99.90;;;5.35;100.00;99317.53;5062509;28;20956;-79
2021/11/18 02:24:51;;;;;;;16.63;5.90;;;4.40;99.90;;;5.35;100.00;99307.16;5062782;28;20491;-79
2021/11/18 02:27:25;;;;;;;9.83;5.77;;;4.40;99.90;;;5.29;100.00;99299.88;5062481;28;20545;-79
2021/11/18 02:29:57;;;;;;;10.70;6.27;;;4.40;99.90;;;5.33;100.00;99303.03;5062526;28;20463;-79
2021/11/18 02:32:32;;;;;;;15.70;5.87;;;4.40;99.90;;;5.30;100.00;99301.53;5062019;28;20495;-79
2021/11/18 02:35:05;;;;;;;7.07;5.03;;;4.50;99.90;;;5.27;100.00;99312.16;5062572;28;20471;-80
2021/11/18 02:37:35;;;;;;;12.40;6.47;;;4.50;99.90;;;5.26;100.00;99300.13;5067961;28;20454;-79
2021/11/18 02:40:05;;;;;;;10.13;5.90;;;4.50;99.90;;;5.26;100.00;99302.72;5065125;28;20833;-79
2021/11/18 02:42:34;;;;;;;11.37;5.50;;;4.40;99.90;;;5.22;100.00;99301.31;5067182;28;20548;-79
2021/11/18 02:45:05;;;;;;;14.33;7.87;;;4.50;99.90;;;5.25;100.00;99302.81;5065148;28;20525;-79
2021/11/18 02:47:34;;;;;;;11.17;6.60;;;4.40;99.90;;;5.23;100.00;99302.97;5059464;28;20480;-80
2021/11/18 02:50:02;;;;;;;11.30;6.40;;;4.40;99.90;;;5.20;100.00;99313.56;5059967;28;20513;-79
2021/11/18 02:52:34;;;;;;;14.67;7.03;;;4.50;99.90;;;5.20;100.00;99313.56;5065102;28;20859;-79
2021/11/18 02:55:07;;;;;;;15.80;7.30;;;4.50;99.90;;;5.20;100.00;99316.16;5068615;28;20957;-79
2021/11/18 02:57:36;;;;;;;13.50;7.30;;;4.40;99.90;;;5.14;100.00;99323.63;5063579;28;20467;-80
2021/11/18 03:00:10;;;;;;;15.17;7.17;;;4.20;99.90;;;5.10;100.00;99320.44;5068028;28;20485;-79
2021/11/18 03:02:38;;;;;;;18.10;7.80;;;4.20;99.90;;;5.15;100.00;99323.47;5066796;28;20512;-79
2021/11/18 03:05:09;;;;;;;11.83;6.43;;;4.30;99.90;;;5.11;100.00;99332.44;5069601;28;20964;-79
2021/11/18 03:07:39;;;;;;;12.30;6.30;;;4.20;99.90;;;5.15;100.00;99338.19;5067970;28;20474;-80
2021/11/18 03:10:10;;;;;;;11.80;6.80;;;4.30;99.90;;;5.11;100.00;99332.44;5057614;28;20509;-79
2021/11/18 03:12:39;;;;;;;12.77;6.93;;;4.20;99.90;;;5.12;100.00;99336.69;5067088;28;20552;-79
2021/11/18 03:15:11;;;;;;;15.90;7.03;;;4.20;99.90;;;5.12;100.00;99336.69;5069710;28;20498;-79
2021/11/18 03:17:41;;;;;;;17.80;7.70;;;4.30;99.90;;;5.15;100.00;99333.00;5063366;28;20524;-79
2021/11/18 03:20:14;;;;;;;13.43;7.40;;;4.30;99.90;;;5.11;100.00;99329.84;5071585;28;20499;-79
2021/11/18 03:22:47;;;;;;;15.20;6.60;;;4.20;99.90;;;5.13;100.00;99333.16;5070348;28;20470;-80
2021/11/18 03:25:20;;;;;;;13.67;6.97;;;4.30;99.90;;;5.15;100.00;99339.03;5058438;28;20470;-79
2021/11/18 03:27:48;;;;;;;14.73;6.90;;;4.30;99.90;;;5.11;100.00;99342.81;5070917;28;20947;-79
2021/11/18 03:30:24;;;;;;;20.73;8.90;;;4.20;99.90;;;5.05;100.00;99351.06;5067725;28;20455;-79
2021/11/18 03:32:56;;;;;;;16.40;7.97;;;4.10;99.90;;;5.04;100.00;99344.22;5065515;28;20534;-79
2021/11/18 03:35:26;;;;;;;12.60;7.23;;;4.10;99.90;;;5.07;100.00;99354.34;5069562;28;20470;-79
2021/11/18 03:38:00;;;;;;;12.57;7.73;;;4.10;99.90;;;5.11;100.00;99345.41;5068181;28;20524;-80
2021/11/18 03:40:30;;;;;;;18.13;7.47;;;4.30;99.90;;;5.16;100.00;99348.47;5064496;28;20463;-79
2021/11/18 03:43:00;;;;;;;18.90;7.40;;;4.30;99.90;;;5.20;100.00;99344.69;5065927;28;20462;-80
2021/11/18 03:45:31;;;;;;;16.93;8.50;;;4.40;99.90;;;5.21;100.00;99341.13;5066894;28;20483;-80
2021/11/18 03:48:00;;;;;;;15.87;7.57;;;4.40;99.90;;;5.20;100.00;99334.31;5063970;28;20477;-80
2021/11/18 03:50:29;;;;;;;18.93;8.43;;;4.40;99.90;;;5.21;100.00;99338.53;5066671;28;20447;-80
2021/11/18 03:52:59;;;;;;;17.33;9.03;;;4.40;99.90;;;5.23;100.00;99338.44;5068144;28;20494;-81
2021/11/18 03:55:27;;;;;;;29.03;8.63;;;4.40;99.90;;;5.22;100.00;99337.59;5069196;28;20604;-80
2021/11/18 03:57:57;;;;;;;56.00;9.87;;;4.40;99.90;;;5.23;100.00;99338.44;5063888;28;20515;-81
2021/11/18 04:00:30;;;;;;;40.50;9.17;;;4.40;99.90;;;5.19;100.00;99330.06;5062555;28;20530;-80
2021/11/18 04:03:00;;;;;;;31.00;7.70;;;4.40;99.90;;;5.23;100.00;99323.69;5059791;28;20542;-81
2021/11/18 04:05:31;;;;;;;17.10;8.80;;;4.40;99.90;;;5.24;100.00;99330.50;5063820;28;20471;-80
2021/11/18 04:08:01;;;;;;;14.77;7.27;;;4.40;99.90;;;5.27;100.00;99345.03;5068723;28;20463;-81
2021/11/18 04:10:33;;;;;;;44.30;8.37;;;4.40;99.90;;;5.26;100.00;99339.00;5059644;28;20463;-80
2021/11/18 04:13:03;;;;;;;15.87;7.33;;;4.40;99.90;;;5.26;100.00;99339.00;5069203;28;21032;-81
2021/11/18 04:15:32;;;;;;;38.50;8.03;;;4.40;99.90;;;5.29;100.00;99333.56;5064107;28;20508;-80
2021/11/18 04:18:02;;;;;;;30.77;6.67;;;4.50;99.90;;;5.28;100.00;99329.31;5066472;28;20983;-80
2021/11/18 04:20:31;;;;;;;30.23;7.67;;;4.60;99.90;;;5.28;100.00;99337.09;5068181;28;20535;-80
2021/11/18 04:23:04;;;;;;;34.83;7.13;;;4.50;99.90;;;5.27;100.00;99345.84;5064523;28;20467;-80
2021/11/18 04:25:36;;;;;;;27.53;6.30;;;4.50;99.90;;;5.23;100.00;99349.63;5061190;28;21023;-80
2021/11/18 04:28:07;;;;;;;18.60;8.03;;;4.40;99.90;;;5.22;100.00;99342.78;5067275;28;20459;-80
2021/11/18 04:30:43;;;;;;;21.10;7.03;;;4.40;99.90;;;5.21;100.00;99341.13;5064352;28;20463;-80
2021/11/18 04:33:13;;;;;;;37.43;7.60;;;4.40;99.90;;;5.20;100.00;99354.22;5065210;28;20503;-80
2021/11/18 04:35:42;;;;;;;18.47;7.60;;;4.40;99.90;;;5.20;100.00;99355.06;5065579;28;20471;-81
2021/11/18 04:38:12;;;;;;;26.27;6.77;;;4.40;99.90;;;5.22;100.00;99367.88;5062982;28;20873;-80
2021/11/18 04:40:42;;;;;;;17.50;8.73;;;4.40;99.90;;;5.21;100.00;99361.03;5060639;28;20463;-80
2021/11/18 04:43:10;;;;;;;21.53;6.67;;;4.40;99.90;;;5.22;100.00;99368.72;5067897;28;20464;-80
2021/11/18 04:45:39;;;;;;;33.37;7.30;;;4.40;99.90;;;5.19;100.00;99361.19;5062499;28;23719;-82
2021/11/18 04:48:08;;;;;;;34.57;12.80;;;4.40;99.90;;;5.16;100.00;99366.63;5060265;28;21002;-80
2021/11/18 04:50:37;;;;;;;47.13;8.57;;;4.40;99.90;;;5.11;100.00;99363.53;5062882;28;20460;-79
2021/11/18 04:53:06;;;;;;;51.77;7.30;;;4.30;99.90;;;5.14;100.00;99375.47;5062905;28;20623;-79
2021/11/18 04:55:38;;;;;;;33.03;6.97;;;4.30;99.90;;;5.11;100.00;99368.72;5066970;28;20455;-79
2021/11/18 04:58:08;;;;;;;35.37;6.13;;;4.30;99.90;;;5.14;100.00;99372.88;5070246;28;20470;-79
2021/11/18 05:00:40;;;;;;;78.97;7.10;;;4.40;99.90;;;5.14;100.00;99370.28;5056778;28;21095;-79
2021/11/18 05:03:10;;;;;;;68.23;7.57;;;4.40;99.90;;;5.12;100.00;99379.94;5061520;28;20450;-80
2021/11/18 05:05:39;;;;;;;44.67;7.00;;;4.40;99.90;;;5.10;100.00;99385.25;5060787;28;20477;-82
2021/11/18 05:08:08;;;;;;;39.30;6.50;;;4.30;99.90;;;5.06;100.00;99387.25;5061728;28;20996;-80
2021/11/18 05:10:38;;;;;;;82.90;8.57;;;4.20;99.90;;;4.98;100.00;99396.53;5063584;28;20477;-80
2021/11/18 05:13:07;;;;;;;66.80;6.73;;;4.20;99.90;;;4.98;100.00;99383.59;5066941;28;20569;-80
2021/11/18 05:15:40;;;;;;;69.67;6.33;;;4.20;99.90;;;4.98;100.00;99384.41;5070001;28;20455;-80
2021/11/18 05:18:11;;;;;;;36.13;6.20;;;4.20;99.90;;;4.99;100.00;99377.47;5069600;28;20458;-79
2021/11/18 05:20:42;;;;;;;38.20;5.70;;;4.20;99.90;;;5.00;100.00;99394.66;5069271;28;20458;-79
2021/11/18 05:23:12;;;;;;;26.13;5.70;;;4.20;99.90;;;4.93;100.00;99393.47;5066991;28;20929;-81
2021/11/18 05:25:43;;;;;;;11.40;5.90;;;4.10;99.90;;;4.89;100.00;99382.56;5068814;28;21065;-81
2021/11/18 05:28:12;;;;;;;66.37;7.47;;;4.10;99.90;;;4.84;100.00;99394.19;5065466;28;20963;-79
2021/11/18 05:30:42;;;;;;;64.10;7.20;;;4.00;99.90;;;4.87;100.00;99396.53;5064914;28;20505;-80
2021/11/18 05:33:14;;;;;;;78.80;9.20;;;4.00;99.90;;;4.86;100.00;99400.91;5058856;28;20497;-80
2021/11/18 05:35:47;;;;;;;67.47;7.30;;;4.10;99.90;;;4.87;100.00;99399.13;5057790;28;20458;-80
2021/11/18 05:38:16;;;;;;;70.30;8.97;;;4.10;99.90;;;4.77;100.00;99398.19;5063168;28;20882;-80
2021/11/18 05:40:46;;;;;;;38.40;6.20;;;3.90;99.90;;;4.70;100.00;99391.81;5070693;28;20448;-80
2021/11/18 05:43:16;;;;;;;46.77;6.20;;;3.80;99.90;;;4.62;100.00;99396.78;5071564;28;20505;-80
2021/11/18 05:45:45;;;;;;;51.23;6.57;;;3.70;99.90;;;4.60;100.00;99388.28;5066107;28;20551;-79
2021/11/18 05:48:17;;;;;;;21.03;5.93;;;3.70;99.90;;;4.61;100.00;99387.34;5071389;28;20491;-80
2021/11/18 05:50:51;;;;;;;24.57;6.03;;;3.70;99.90;;;4.62;100.00;99389.81;5071240;28;20520;-81
2021/11/18 05:53:25;;;;;;;32.57;6.20;;;3.70;99.90;;;4.53;100.00;99385.34;5071070;28;20496;-80
2021/11/18 05:55:56;;;;;;;56.17;6.23;;;3.60;99.90;;;4.55;100.00;99381.69;5068470;28;20454;-80
2021/11/18 05:58:24;;;;;;;59.53;6.83;;;3.60;99.90;;;4.52;100.00;99383.69;5063036;28;20445;-80
2021/11/18 06:00:53;;;;;;;17.17;5.63;;;3.60;99.90;;;4.49;100.00;99387.34;5068262;28;20549;-79
2021/11/18 06:03:22;;;;;;;41.33;7.97;;;3.60;99.90;;;4.49;100.00;99382.16;5070207;28;21018;-80
2021/11/18 06:05:50;;;;;;;20.83;6.33;;;3.60;99.90;;;4.47;100.00;99403.94;5061605;28;20864;-80
2021/11/18 06:08:19;;;;;;;33.67;6.37;;;3.50;99.90;;;4.44;100.00;99396.41;5066535;28;20443;-80
2021/11/18 06:10:50;;;;;;;11.87;5.63;;;3.50;99.90;;;4.43;100.00;99399.91;5062183;28;20547;-80
2021/11/18 06:13:21;;;;;;;13.20;6.20;;;3.50;99.90;;;4.41;100.00;99405.19;5057501;28;21009;-79
2021/11/18 06:15:50;;;;;;;32.47;6.17;;;3.50;99.90;;;4.40;100.00;99408.75;5065480;28;20481;-80
2021/11/18 06:18:18;;;;;;;22.30;5.40;;;3.50;99.90;;;4.38;100.00;99413.19;5070550;28;20861;-80
2021/11/18 06:20:47;;;;;;;16.93;5.50;;;3.50;99.90;;;4.36;100.00;99403.91;5070515;28;20450;-80
2021/11/18 06:23:16;;;;;;;5.93;4.80;;;3.60;99.90;;;4.29;100.00;99403.53;5072621;28;20497;-80
2021/11/18 06:25:45;;;;;;;6.67;5.13;;;3.40;99.90;;;4.28;100.00;99401.88;5070677;28;20481;-80
2021/11/18 06:28:15;;;;;;;6.60;4.47;;;3.50;99.90;;;4.21;100.00;99412.78;5072691;28;20447;-80
2021/11/18 06:30:49;;;;;;;6.10;5.00;;;3.40;99.90;;;4.24;100.00;99413.41;5067704;28;20935;-81
2021/11/18 06:33:20;;;;;;;11.20;5.63;;;3.40;99.90;;;4.24;100.00;99416.00;5070584;28;20482;-80
2021/11/18 06:35:50;;;;;;;9.13;5.30;;;3.40;99.90;;;4.23;100.00;99416.13;5069499;28;20566;-80
2021/11/18 06:38:36;;;;;;;10.77;5.77;;;3.50;99.90;;;4.15;100.00;99421.84;5067422;28;20447;-80
2021/11/18 06:41:06;;;;;;;6.50;4.60;;;3.40;99.90;;;4.06;100.00;99417.38;5068272;28;20563;-80
2021/11/18 06:43:34;;;;;;;12.73;5.10;;;3.20;99.90;;;4.13;100.00;99423.72;5067352;28;20442;-80
2021/11/18 06:46:05;;;;;;;9.30;4.90;;;3.30;99.90;;;4.15;100.00;99421.84;5064228;28;20477;-80
2021/11/18 06:48:35;;;;;;;5.50;4.40;;;3.30;99.90;;;4.17;100.00;99430.31;5069633;28;20464;-80
2021/11/18 06:51:07;;;;;;;8.70;5.83;;;3.30;99.90;;;4.16;100.00;99428.69;5070440;28;20452;-79
2021/11/18 06:53:38;;;;;;;11.03;5.70;;;3.30;99.90;;;4.07;100.00;99424.16;5070348;28;20501;-80
2021/11/18 06:56:08;;;;;;;8.60;5.73;;;3.30;99.90;;;4.09;100.00;99440.44;5065951;28;20453;-80
2021/11/18 06:58:37;;;;;;;13.43;6.57;;;3.30;99.90;;;4.03;100.00;99438.25;5065753;28;20499;-80
2021/11/18 07:01:07;;;;;;;9.67;5.90;;;3.10;99.90;;;4.09;100.00;99443.00;5065510;28;20456;-80
2021/11/18 07:03:39;;;;;;;21.50;5.50;;;3.20;99.90;;;4.12;100.00;99437.63;5070623;28;20448;-80
2021/11/18 07:06:09;;;;;;;46.50;7.67;;;3.30;99.90;;;4.13;100.00;99441.81;5070311;28;20452;-80
2021/11/18 07:08:38;;;;;;;43.30;8.57;;;3.30;99.90;;;4.10;100.00;99452.41;5068162;28;20949;-79
2021/11/18 07:11:08;;;;;;;20.20;7.87;;;3.20;99.90;;;4.14;100.00;99460.78;5069266;28;20537;-80
2021/11/18 07:13:37;;;;;;;38.27;6.80;;;3.30;99.90;;;4.15;100.00;99468.44;5070398;28;20993;-80
2021/11/18 07:16:12;;;;;;;29.63;6.37;;;3.40;99.90;;;4.16;100.00;99470.09;5068372;28;20452;-80
2021/11/18 07:18:41;;;;;;;99.70;8.10;;;3.40;99.90;;;4.17;100.00;99470.91;5069174;28;20448;-80
2021/11/18 07:21:11;;;;;;;37.27;6.83;;;3.60;99.90;;;4.15;100.00;99473.63;5063463;28;20833;-80
2021/11/18 07:23:43;;;;;;;76.20;8.13;;;3.50;99.90;;;4.19;100.00;99464.69;5071444;28;20488;-80
2021/11/18 07:26:13;;;;;;;33.90;6.70;;;3.50;99.90;;;4.20;100.00;99470.72;5070398;28;20532;-80
2021/11/18 07:28:42;;;;;;;16.27;6.90;;;3.50;99.90;;;4.24;100.00;99479.88;5070276;28;20510;-79
2021/11/18 07:31:14;;;;;;;14.43;6.77;;;3.50;99.90;;;4.26;100.00;99486.63;5070286;28;20445;-80
2021/11/18 07:33:43;;;;;;;37.67;7.83;;;3.50;99.90;;;4.28;100.00;99489.91;5070112;28;20502;-80
2021/11/18 07:36:12;;;;;;;22.40;7.60;;;3.40;99.90;;;4.25;100.00;99490.13;5068255;28;20450;-80
2021/11/18 07:38:41;;;;;;;12.53;6.00;;;3.40;99.90;;;4.26;100.00;99494.38;5063799;28;20476;-80
2021/11/18 07:41:11;;;;;;;41.37;8.00;;;3.40;99.90;;;4.28;100.00;99495.09;5071340;28;20442;-80
2021/11/18 07:43:44;;;;;;;11.80;6.90;;;3.40;99.90;;;4.30;100.00;99501.00;5070229;28;20446;-80
2021/11/18 07:46:34;;;;;;;14.23;6.93;;;3.40;99.90;;;4.33;100.00;99497.34;5060186;28;20553;-80
2021/11/18 07:49:05;;;;;;;20.10;7.73;;;3.50;99.90;;;4.33;100.00;99503.34;5064467;28;20523;-80
2021/11/18 07:51:34;;;;;;;12.70;6.40;;;3.50;99.90;;;4.35;100.00;99517.00;5076394;28;20492;-80
2021/11/18 07:54:02;;;;;;;14.40;7.10;;;3.50;99.90;;;4.39;100.00;99508.06;5070532;28;20517;-80
2021/11/18 07:56:31;;;;;;;13.47;7.57;;;3.60;99.90;;;4.43;100.00;99503.50;5064512;28;20450;-80
2021/11/18 07:59:00;;;;;;;13.03;7.80;;;3.60;99.90;;;4.46;100.00;99501.50;5062908;28;20491;-80
2021/11/18 08:01:28;;;;;;;10.00;6.77;;;3.60;99.90;;;4.45;100.00;99497.25;5067083;28;20502;-80
2021/11/18 08:03:59;;;;;;;11.23;7.07;;;3.60;99.90;;;4.44;100.00;99502.56;5074607;28;20534;-80
2021/11/18 08:06:30;;;;;;;14.27;6.27;;;3.60;99.90;;;4.51;100.00;99501.19;5062878;28;20516;-79
2021/11/18 08:08:59;;;;;;;11.63;6.67;;;3.60;99.90;;;4.54;100.00;99500.97;5072884;28;20459;-80
2021/11/18 08:11:31;;;;;;;10.33;6.60;;;3.70;99.90;;;4.58;100.00;99503.19;5072921;28;20461;-80
2021/11/18 08:14:00;;;;;;;9.17;5.60;;;3.70;99.90;;;4.62;100.00;99497.81;5063237;28;20539;-80
2021/11/18 08:16:29;;;;;;;12.13;6.43;;;3.90;99.90;;;4.65;100.00;99500.97;5069695;28;20863;-80
2021/11/18 08:18:59;;;;;;;11.90;5.90;;;3.90;99.90;;;4.69;100.00;99498.97;5073144;28;20924;-80
2021/11/18 08:21:28;;;;;;;12.30;6.77;;;3.90;99.90;;;4.77;100.00;99501.81;5072837;28;20451;-80
2021/11/18 08:23:57;;;;;;;14.63;7.63;;;4.00;99.90;;;4.85;100.00;99507.28;5073663;28;20451;-80
2021/11/18 08:26:26;;;;;;;14.70;7.63;;;4.10;99.90;;;4.90;100.00;99507.75;5068176;28;20451;-80
2021/11/18 08:28:55;;;;;;;13.43;7.53;;;4.20;99.90;;;4.95;100.00;99510.81;5054644;28;20478;-80
2021/11/18 08:31:25;;;;;;;12.33;7.00;;;4.20;99.90;;;4.97;100.00;99516.69;5072618;28;20467;-80
2021/11/18 08:33:55;;;;;;;11.50;7.20;;;4.20;99.90;;;4.93;100.00;99518.69;5072818;28;20499;-80
2021/11/18 08:36:25;;;;;;;12.47;7.33;;;4.10;99.90;;;4.96;100.00;99502.13;5071013;28;20464;-80
2021/11/18 08:38:55;;;;;;;11.07;7.03;;;4.20;99.90;;;4.96;100.00;99502.13;5072672;28;21005;-81
2021/11/18 08:41:28;;;;;;;11.37;6.97;;;4.20;99.90;;;4.98;100.00;99505.41;5070228;28;20444;-80
2021/11/18 08:44:00;;;;;;;15.63;7.40;;;4.20;99.90;;;5.03;100.00;99519.66;5070397;28;20993;-80
2021/11/18 08:46:29;;;;;;;11.93;6.80;;;4.20;99.90;;;5.06;100.00;99513.44;5056015;28;20479;-80
2021/11/18 08:49:06;;;;;;;11.37;6.60;;;4.40;99.90;;;5.08;100.00;99517.56;5070344;28;20562;-80
2021/11/18 08:51:37;;;;;;;12.50;7.53;;;4.40;99.90;;;5.11;100.00;99519.09;5053592;28;20461;-80
2021/11/18 08:54:23;;;;;;;11.87;6.60;;;4.40;99.90;;;5.13;100.00;99517.22;5067353;28;20489;-80
2021/11/18 08:57:02;;;;;;;13.37;7.10;;;4.30;99.90;;;5.17;100.00;99529.00;5057771;28;21113;-80
2021/11/18 08:59:32;;;;;;;12.50;7.40;;;4.40;99.90;;;5.18;100.00;99528.06;5053605;28;20507;-80
2021/11/18 09:02:15;;;;;;;10.03;6.17;;;4.40;99.90;;;5.23;100.00;99523.34;5066452;28;20807;-80
2021/11/18 09:04:48;;;;;;;11.20;6.80;;;4.50;99.90;;;5.29;100.00;99517.69;5071841;28;20796;-80
2021/11/18 09:07:25;;;;;;;16.23;8.50;;;4.50;99.90;;;5.30;100.00;99527.13;5065796;28;20802;-80
2021/11/18 09:10:12;;;;;;;14.73;8.07;;;4.50;99.90;;;5.36;100.00;99537.03;5062967;28;20474;-80
2021/11/18 09:12:55;;;;;;;16.37;8.63;;;4.70;99.90;;;5.42;100.00;99536.56;5056532;28;20480;-80
2021/11/18 09:15:47;;;;;;;12.97;6.70;;;4.80;99.90;;;5.47;100.00;99529.25;5072348;28;20536;-81
2021/11/18 09:18:41;;;;;;;12.83;7.13;;;4.90;99.90;;;5.54;100.00;99534.78;5074966;28;20446;-80
2021/11/18 09:21:27;;;;;;;12.90;6.97;;;4.80;99.90;;;5.59;100.00;99543.84;5070579;28;20448;-80
2021/11/18 09:24:03;;;;;;;14.80;7.40;;;4.90;99.90;;;5.65;100.00;99547.75;5070563;28;20484;-80
2021/11/18 09:27:20;;;;;;;14.97;7.50;;;4.90;99.90;;;5.71;100.00;99541.25;5066606;28;21032;-81
2021/11/18 09:30:07;;;;;;;19.87;8.17;;;4.90;99.90;;;5.76;100.00;99544.34;5069442;28;20452;-81
2021/11/18 09:32:48;;;;;;;19.53;8.40;;;5.00;99.90;;;5.82;100.00;99552.47;5061035;28;20830;-81
2021/11/18 09:35:55;;;;;;;12.63;7.67;;;5.00;99.90;;;5.87;100.00;99555.53;5061574;28;20563;-80
2021/11/18 09:38:51;;;;;;;21.47;8.43;;;5.10;99.90;;;5.93;100.00;99534.31;5078666;28;20460;-81
2021/11/18 09:42:22;;;;;;;12.57;7.40;;;5.30;99.90;;;6.02;100.00;99540.53;5072537;28;20463;-80
2021/11/18 09:45:27;;;;;;;15.00;8.17;;;5.30;99.90;;;6.08;100.00;99538.28;5063715;28;20546;-81
2021/11/18 09:48:52;;;;;;;19.77;8.27;;;5.50;99.90;;;6.17;100.00;99539.34;5067336;28;20481;-80
2021/11/18 09:52:15;;;;;;;16.80;9.10;;;5.50;99.90;;;6.24;100.00;99532.72;5018888;28;20783;-81
2021/11/18 09:55:08;;;;;;;14.40;6.93;;;5.60;99.90;;;6.31;100.00;99546.03;4992013;28;20495;-81
2021/11/18 09:58:32;;;;;;;16.73;7.33;;;5.70;99.90;;;6.36;100.00;99534.31;5010914;28;20462;-81
2021/11/18 10:01:57;;;;;;;19.23;6.80;;;5.80;99.90;;;6.41;100.00;99532.19;5011069;28;20474;-81
2021/11/18 10:04:42;;;;;;;23.33;7.07;;;5.80;99.90;;;6.48;100.00;99528.13;4974087;28;20462;-81
2021/11/18 10:07:31;;;;;;;22.57;7.70;;;5.80;99.90;;;6.54;100.00;99532.00;5008229;28;20451;-80
2021/11/18 10:10:57;;;;;;;16.63;6.90;;;5.90;99.90;;;6.59;100.00;99535.84;5015313;28;20502;-81
2021/11/18 10:14:46;;;;;;;15.73;7.30;;;5.90;99.90;;;6.69;100.00;99530.75;5071341;28;20437;-81
2021/11/18 10:17:52;;;;;;;17.73;7.50;;;6.00;99.90;;;6.73;100.00;99518.34;5068932;28;20522;-81
2021/11/18 10:21:17;;;;;;;21.10;6.30;;;6.10;99.90;;;6.81;100.00;99518.50;5059508;28;20447;-81
2021/11/18 10:24:18;;;;;;;13.70;6.30;;;6.20;99.90;;;6.88;100.00;99524.84;5062421;28;20469;-81
2021/11/18 10:27:21;;;;;;;16.73;6.20;;;6.30;99.90;;;6.93;100.00;99528.72;5068502;28;20455;-81
2021/11/18 10:30:16;;;;;;;19.73;5.60;;;6.30;99.90;;;6.98;100.00;99520.53;5071890;28;20440;-81
2021/11/18 10:33:05;;;;;;;14.70;6.07;;;6.40;99.90;;;7.04;100.00;99515.66;5070815;28;20440;-80
2021/11/18 10:35:44;;;;;;;14.20;6.20;;;6.50;99.90;;;7.10;100.00;99516.91;5070478;28;20492;-80
2021/11/18 10:42:10;;;;;;;13.50;6.17;;;6.60;99.90;;;7.22;100.00;99528.88;5018670;28;20531;-81
2021/11/18 10:45:30;;;;;;;21.73;6.07;;;6.60;99.90;;;7.28;100.00;99528.38;5055776;28;20547;-81
2021/11/18 10:48:04;;;;;;;13.90;5.47;;;6.70;99.90;;;7.35;100.00;99534.72;5068784;28;21071;-80
2021/11/18 10:50:44;;;;;;;13.63;5.33;;;6.80;99.90;;;7.39;100.00;99523.06;5059119;28;20449;-81
2021/11/18 10:53:48;;;;;;;14.40;5.43;;;6.80;99.90;;;7.45;100.00;99525.19;5071695;28;20444;-82
2021/11/18 10:56:48;;;;;;;15.53;5.60;;;6.90;99.90;;;7.52;100.00;99523.69;5054289;28;21018;-81